Terminal Aerodrome Forecast
Issued by NWS Cleveland, OH

Home | Current Version | Previous Version | Graphics & Text | Print | Product List | Glossary On
Versions: 1 2 3 4 5 6 7 8 9 10 11 12 13 14 15 16 17
000
FTUS41 KCLE 162051 AAA
TAFERI
TAF AMD
KERI 162051Z 1621/1718 29010KT P6SM OVC035
     FM170000 29004KT P6SM OVC035
     FM170600 17005KT P6SM OVC250=

USA.gov is the U.S. government's official web portal to all federal, state and local government web resources and services.